Time;durP1;ratioP1;P1;durP2;ratioP2;P2;SDS_P1;SDS_P2;PMS_P1;PMS_P2;Temp;Humidity;BMP_temperature;BMP_pressure;BME280_temperature;BME280_humidity;BME280_pressure;Samples;Min_cycle;Max_cycle;Signal;HPM_P1;HPM_P2
2023/12/15 00:01:10;;;;;;;1.30;1.20;;;;;;;13.91;53.70;97924.27;105360;1256;72535;-41
2023/12/15 00:03:38;;;;;;;1.30;1.10;;;;;;;13.90;53.78;97923.53;105233;1260;61243;-43
2023/12/15 00:06:06;;;;;;;1.10;1.00;;;;;;;13.90;53.65;97924.92;105476;1256;61230;-41
2023/12/15 00:08:33;;;;;;;2.40;1.20;;;;;;;13.90;53.63;97924.98;105625;1260;74577;-40
2023/12/15 00:11:00;;;;;;;1.20;1.10;;;;;;;13.90;53.67;97927.68;105630;1261;65605;-41
2023/12/15 00:13:28;;;;;;;1.40;1.30;;;;;;;13.90;53.64;97931.45;105522;1259;73597;-43
2023/12/15 00:15:55;;;;;;;1.20;1.10;;;;;;;13.90;53.61;97938.45;105473;1261;61298;-42
2023/12/15 00:18:22;;;;;;;1.90;1.10;;;;;;;13.90;53.77;97946.21;105482;1258;61343;-41
2023/12/15 00:20:50;;;;;;;1.50;1.10;;;;;;;13.89;53.64;97952.49;105708;1257;75051;-41
2023/12/15 00:23:17;;;;;;;1.50;1.20;;;;;;;13.89;53.60;97958.73;105609;1260;65703;-41
2023/12/15 00:25:44;;;;;;;1.10;1.00;;;;;;;13.89;53.52;97962.43;105555;1256;72653;-40
2023/12/15 00:28:11;;;;;;;1.40;1.20;;;;;;;13.89;53.63;97962.50;105408;1260;61141;-41
2023/12/15 00:30:39;;;;;;;1.20;1.10;;;;;;;13.89;53.75;97959.48;105372;1256;61410;-40
2023/12/15 00:33:06;;;;;;;0.90;0.90;;;;;;;13.88;53.69;97962.61;105612;1256;74601;-41
2023/12/15 00:35:34;;;;;;;1.30;1.20;;;;;;;13.88;53.54;97965.65;106058;1255;65610;-41
2023/12/15 00:38:01;;;;;;;1.10;1.00;;;;;;;13.88;53.58;97973.83;105637;1256;72597;-41
2023/12/15 00:40:28;;;;;;;1.60;1.20;;;;;;;13.88;53.59;97971.52;105674;1261;61231;-41
2023/12/15 00:42:56;;;;;;;1.80;1.10;;;;;;;13.88;53.58;97970.35;105666;1256;61328;-41
2023/12/15 00:45:23;;;;;;;1.30;1.10;;;;;;;13.87;53.61;97977.19;105641;1256;74593;-41
2023/12/15 00:47:50;;;;;;;1.30;1.20;;;;;;;13.87;53.68;97981.94;105585;1256;66716;-41
2023/12/15 00:50:18;;;;;;;1.10;1.00;;;;;;;13.86;53.59;97988.80;105588;1256;71456;-41
2023/12/15 00:52:46;;;;;;;1.20;1.10;;;;;;;13.87;53.59;97988.36;105556;1262;61263;-41
2023/12/15 00:55:13;;;;;;;1.30;1.20;;;;;;;13.86;53.58;97987.95;105256;1256;61318;-42
2023/12/15 00:57:40;;;;;;;1.30;1.20;;;;;;;13.86;53.50;97995.17;105449;1257;74591;-41
2023/12/15 01:00:09;;;;;;;1.10;1.00;;;;;;;13.85;53.63;97993.84;105603;1259;66057;-41
2023/12/15 01:02:36;;;;;;;2.60;1.10;;;;;;;13.85;53.55;97994.06;105603;1260;71138;-40
2023/12/15 01:05:04;;;;;;;1.70;1.10;;;;;;;13.85;53.65;97998.05;105572;1261;61268;-39
2023/12/15 01:07:31;;;;;;;1.70;1.10;;;;;;;13.85;53.66;97996.13;105501;1262;61216;-42
2023/12/15 01:09:59;;;;;;;1.30;1.20;;;;;;;13.84;53.60;98000.55;105331;1261;75085;-42
2023/12/15 01:12:26;;;;;;;1.40;1.20;;;;;;;13.83;53.58;98005.52;105500;1260;66318;-42
2023/12/15 01:14:53;;;;;;;1.30;1.20;;;;;;;13.83;53.61;98004.82;105618;1256;72715;-42
2023/12/15 01:17:20;;;;;;;1.10;1.00;;;;;;;13.83;53.67;98005.95;105537;1260;61155;-42
2023/12/15 01:19:48;;;;;;;1.30;1.20;;;;;;;13.83;53.68;98008.55;105554;1256;61884;-42
2023/12/15 01:22:15;;;;;;;1.80;1.50;;;;;;;13.82;53.46;98008.84;105586;1256;74599;-41
2023/12/15 01:24:42;;;;;;;1.10;1.00;;;;;;;13.82;53.54;98010.84;105588;1262;65403;-41
2023/12/15 01:27:10;;;;;;;1.20;1.00;;;;;;;13.82;53.56;98016.82;105599;1256;72550;-40
2023/12/15 01:29:37;;;;;;;1.30;1.20;;;;;;;13.80;53.50;98015.23;105506;1262;61255;-40
2023/12/15 01:32:05;;;;;;;1.00;1.00;;;;;;;13.81;53.47;98015.92;105589;1256;61322;-40
2023/12/15 01:34:33;;;;;;;1.20;1.10;;;;;;;13.80;53.55;98017.30;105602;1256;73451;-41
2023/12/15 01:37:00;;;;;;;1.10;1.00;;;;;;;13.81;53.67;98023.08;105459;1260;65897;-42
2023/12/15 01:39:27;;;;;;;1.30;1.20;;;;;;;13.81;53.50;98024.06;105217;1256;72677;-41
2023/12/15 01:41:55;;;;;;;1.80;1.30;;;;;;;13.80;53.56;98025.97;105373;1260;61306;-41
2023/12/15 01:44:22;;;;;;;1.10;1.00;;;;;;;13.80;53.63;98029.96;105578;1256;61401;-41
2023/12/15 01:46:49;;;;;;;1.50;1.20;;;;;;;13.79;53.58;98030.02;105294;1256;74579;-41
2023/12/15 01:49:17;;;;;;;1.20;1.10;;;;;;;13.79;53.63;98032.55;105214;1260;66134;-41
2023/12/15 01:51:44;;;;;;;1.30;1.20;;;;;;;13.79;53.55;98031.48;105392;1256;72440;-41
2023/12/15 01:54:11;;;;;;;1.30;1.00;;;;;;;13.79;53.63;98028.30;105341;1260;61177;-41
2023/12/15 01:56:39;;;;;;;1.20;1.10;;;;;;;13.79;53.51;98031.48;105465;1256;61241;-41
2023/12/15 01:59:06;;;;;;;1.60;1.20;;;;;;;13.79;53.59;98037.61;105154;1262;74425;-41
2023/12/15 02:01:33;;;;;;;1.20;1.10;;;;;;;13.79;53.65;98042.14;105526;1260;65743;-41
2023/12/15 02:04:01;;;;;;;1.40;1.20;;;;;;;13.79;53.61;98044.98;105530;1256;72611;-41
2023/12/15 02:06:28;;;;;;;2.10;1.10;;;;;;;13.79;53.68;98051.30;105366;1262;61215;-41
2023/12/15 02:08:56;;;;;;;1.40;0.90;;;;;;;13.79;53.58;98054.59;105248;1259;61257;-41
2023/12/15 02:11:23;;;;;;;1.50;1.10;;;;;;;13.79;53.62;98056.20;105174;1261;74371;-41
2023/12/15 02:13:50;;;;;;;1.00;0.90;;;;;;;13.79;53.53;98055.35;105290;1261;66003;-43
2023/12/15 02:16:18;;;;;;;1.40;1.10;;;;;;;13.78;53.53;98060.27;105371;1259;72372;-41
2023/12/15 02:18:45;;;;;;;1.10;1.00;;;;;;;13.78;53.65;98061.48;105315;1262;61244;-41
2023/12/15 02:21:12;;;;;;;1.40;1.30;;;;;;;13.78;53.69;98066.86;105235;1256;61222;-41
2023/12/15 02:23:40;;;;;;;1.60;1.30;;;;;;;13.78;53.50;98073.34;105460;1256;74456;-41
2023/12/15 02:26:07;;;;;;;1.10;1.00;;;;;;;13.79;53.45;98076.98;105327;1262;65858;-41
2023/12/15 02:28:34;;;;;;;1.80;1.40;;;;;;;13.78;53.53;98082.27;105182;1256;72769;-41
2023/12/15 02:31:02;;;;;;;1.30;1.20;;;;;;;13.79;53.58;98089.42;105406;1260;61234;-41
2023/12/15 02:33:30;;;;;;;1.20;1.00;;;;;;;13.78;53.48;98090.85;105626;1257;61277;-41
2023/12/15 02:35:57;;;;;;;1.10;1.00;;;;;;;13.78;53.61;98094.88;105655;1257;74417;-41
2023/12/15 02:38:24;;;;;;;1.20;1.10;;;;;;;13.78;53.50;98097.16;105681;1262;65794;-41
2023/12/15 02:40:52;;;;;;;1.00;1.00;;;;;;;13.78;53.53;98097.54;105601;1262;71329;-41
2023/12/15 02:43:19;;;;;;;1.20;1.10;;;;;;;13.77;53.61;98098.29;105423;1260;61226;-41
2023/12/15 02:45:47;;;;;;;1.30;1.20;;;;;;;13.77;53.53;98104.64;105603;1260;61156;-41
2023/12/15 02:48:16;;;;;;;1.90;1.10;;;;;;;13.77;53.41;98106.41;105599;1258;74364;-41
2023/12/15 02:50:44;;;;;;;1.20;1.10;;;;;;;13.77;53.42;98107.88;105858;1262;66078;-41
2023/12/15 02:53:11;;;;;;;1.20;1.10;;;;;;;13.76;53.37;98111.13;105498;1256;72708;-41
2023/12/15 02:55:39;;;;;;;1.20;1.10;;;;;;;13.76;53.39;98116.06;105581;1264;61341;-40
2023/12/15 02:58:06;;;;;;;2.50;1.20;;;;;;;13.76;53.34;98119.43;105384;1256;61264;-41
2023/12/15 03:00:34;;;;;;;1.50;1.20;;;;;;;13.75;53.32;98127.25;105927;1257;74629;-41
2023/12/15 03:03:01;;;;;;;1.00;0.90;;;;;;;13.75;53.38;98129.57;105273;1262;65842;-40
2023/12/15 03:05:28;;;;;;;1.90;1.00;;;;;;;13.75;53.43;98133.45;105896;1256;72535;-41
2023/12/15 03:07:56;;;;;;;1.10;1.00;;;;;;;13.74;53.34;98136.20;105416;1262;61240;-41
2023/12/15 03:10:23;;;;;;;1.70;1.30;;;;;;;13.74;53.42;98145.35;105621;1259;61239;-41
2023/12/15 03:12:51;;;;;;;1.50;1.20;;;;;;;13.74;53.44;98148.80;105631;1257;74612;-41
2023/12/15 03:15:18;;;;;;;1.00;0.90;;;;;;;13.73;53.31;98155.48;105394;1262;66047;-40
2023/12/15 03:17:45;;;;;;;1.00;1.00;;;;;;;13.73;53.31;98152.47;105318;1257;72430;-42
2023/12/15 03:20:13;;;;;;;1.20;1.10;;;;;;;13.73;53.38;98153.23;105352;1262;61283;-41
2023/12/15 03:22:40;;;;;;;1.30;1.10;;;;;;;13.73;53.36;98156.21;105463;1262;61252;-41
2023/12/15 03:25:07;;;;;;;1.70;1.20;;;;;;;13.73;53.43;98155.29;105577;1256;74680;-41
2023/12/15 03:27:35;;;;;;;1.20;1.10;;;;;;;13.72;53.35;98157.19;105548;1261;65791;-40
2023/12/15 03:30:03;;;;;;;1.10;1.00;;;;;;;13.71;53.31;98155.53;105502;1260;72611;-40
2023/12/15 03:32:30;;;;;;;1.30;1.10;;;;;;;13.71;53.35;98152.84;105497;1258;61352;-42
2023/12/15 03:34:58;;;;;;;1.40;1.10;;;;;;;13.71;53.50;98152.36;105433;1260;61360;-40
2023/12/15 03:37:25;;;;;;;1.30;1.20;;;;;;;13.71;53.40;98154.05;105593;1262;74896;-41
2023/12/15 03:39:52;;;;;;;1.20;1.10;;;;;;;13.70;53.46;98156.01;105278;1262;65360;-41
2023/12/15 03:42:20;;;;;;;1.20;1.10;;;;;;;13.70;53.37;98159.98;105475;1256;72380;-41
2023/12/15 03:44:47;;;;;;;1.30;1.00;;;;;;;13.69;53.28;98164.73;105528;1262;61301;-41
2023/12/15 03:47:14;;;;;;;2.00;1.20;;;;;;;13.69;53.38;98170.50;105392;1257;61345;-42
2023/12/15 03:49:41;;;;;;;1.10;1.00;;;;;;;13.69;53.45;98171.41;105507;1256;74426;-41
2023/12/15 03:52:09;;;;;;;2.10;1.40;;;;;;;13.68;53.34;98174.06;105338;1260;65905;-42
2023/12/15 03:54:36;;;;;;;0.90;0.90;;;;;;;13.68;53.37;98179.42;105175;1260;72432;-41
2023/12/15 03:57:04;;;;;;;1.00;0.90;;;;;;;13.68;53.41;98180.34;105207;1261;61810;-42
2023/12/15 03:59:31;;;;;;;2.00;1.10;;;;;;;13.68;53.47;98188.35;105190;1256;61149;-40
2023/12/15 04:01:58;;;;;;;1.20;1.10;;;;;;;13.67;53.45;98190.69;105224;1256;74384;-40
2023/12/15 04:04:26;;;;;;;1.20;1.10;;;;;;;13.67;53.32;98195.69;105475;1262;65380;-40
2023/12/15 04:06:53;;;;;;;1.30;1.10;;;;;;;13.67;53.53;98196.67;105193;1256;72776;-40
2023/12/15 04:09:20;;;;;;;1.30;1.20;;;;;;;13.66;53.37;98200.93;105315;1261;61244;-41
2023/12/15 04:11:48;;;;;;;1.20;1.10;;;;;;;13.67;53.40;98201.57;105643;1260;61367;-41
2023/12/15 04:14:15;;;;;;;1.10;1.00;;;;;;;13.65;53.30;98208.43;105609;1258;74569;-40
2023/12/15 04:16:43;;;;;;;2.20;1.00;;;;;;;13.65;53.29;98209.41;105542;1262;66139;-41
2023/12/15 04:19:10;;;;;;;1.40;1.10;;;;;;;13.65;53.35;98216.19;105242;1256;72591;-42
2023/12/15 04:21:37;;;;;;;1.10;0.90;;;;;;;13.64;53.48;98219.22;105377;1262;61263;-41
2023/12/15 04:24:06;;;;;;;1.20;1.10;;;;;;;13.64;53.35;98217.83;105275;1260;61370;-40
2023/12/15 04:26:34;;;;;;;1.70;1.10;;;;;;;13.64;53.27;98223.98;105548;1257;74563;-40
2023/12/15 04:29:01;;;;;;;1.10;1.00;;;;;;;13.64;53.30;98224.73;105618;1260;66293;-39
2023/12/15 04:31:29;;;;;;;1.20;1.10;;;;;;;13.63;53.32;98227.17;105663;1260;72421;-40
2023/12/15 04:33:56;;;;;;;1.20;1.10;;;;;;;13.63;53.35;98228.91;105488;1260;61170;-42
2023/12/15 04:36:24;;;;;;;1.10;1.00;;;;;;;13.63;53.33;98233.85;105598;1260;61349;-40
2023/12/15 04:38:51;;;;;;;1.20;1.10;;;;;;;13.63;53.33;98239.45;105608;1256;73369;-40
2023/12/15 04:41:23;;;;;;;1.40;1.00;;;;;;;13.62;53.39;98242.64;105632;1260;65827;-40
2023/12/15 04:43:50;;;;;;;0.90;0.90;;;;;;;13.62;53.37;98247.05;105595;1256;72477;-40
2023/12/15 04:46:27;;;;;;;1.10;0.90;;;;;;;13.63;53.40;98253.67;105316;1256;61351;-41
2023/12/15 04:48:56;;;;;;;1.20;1.10;;;;;;;13.62;53.36;98255.94;105566;1256;61328;-41
2023/12/15 04:51:23;;;;;;;1.10;1.00;;;;;;;13.62;53.36;98256.85;105638;1260;74635;-40
2023/12/15 04:53:51;;;;;;;0.90;0.90;;;;;;;13.62;53.45;98260.94;105527;1260;64094;-40
2023/12/15 04:56:18;;;;;;;1.20;1.10;;;;;;;13.62;53.33;98262.08;105209;1256;72634;-41
2023/12/15 04:58:46;;;;;;;1.20;1.10;;;;;;;13.62;53.44;98275.26;105302;1262;61360;-41
2023/12/15 05:01:13;;;;;;;1.40;1.20;;;;;;;13.62;53.38;98278.81;105238;1261;61288;-41
2023/12/15 05:03:41;;;;;;;1.10;1.00;;;;;;;13.62;53.49;98283.17;105375;1258;74592;-41
2023/12/15 05:06:20;;;;;;;1.10;0.90;;;;;;;13.63;53.36;98284.19;105592;1261;65785;-41
2023/12/15 05:08:48;;;;;;;1.20;1.10;;;;;;;13.63;53.31;98284.89;105412;1262;72679;-40
2023/12/15 05:11:15;;;;;;;1.20;1.10;;;;;;;13.62;53.35;98286.89;105208;1257;61349;-41
2023/12/15 05:13:43;;;;;;;1.40;1.00;;;;;;;13.63;53.25;98293.66;105331;1259;61345;-42
2023/12/15 05:16:11;;;;;;;0.80;0.80;;;;;;;13.63;53.29;98302.37;105583;1262;74622;-42
2023/12/15 05:18:38;;;;;;;1.10;0.90;;;;;;;13.63;53.23;98302.98;105610;1261;66190;-42
2023/12/15 05:21:06;;;;;;;1.20;0.90;;;;;;;13.63;53.24;98306.67;105673;1260;72567;-42
2023/12/15 05:23:33;;;;;;;1.20;1.10;;;;;;;13.64;53.32;98310.00;105441;1262;61239;-41
2023/12/15 05:26:01;;;;;;;1.10;1.00;;;;;;;13.63;53.33;98315.23;105399;1257;61332;-41
2023/12/15 05:28:28;;;;;;;1.10;1.00;;;;;;;13.64;53.28;98317.27;105315;1256;74626;-42
2023/12/15 05:30:56;;;;;;;1.10;0.80;;;;;;;13.64;53.28;98322.74;105303;1269;66157;-42
2023/12/15 05:33:23;;;;;;;1.60;1.00;;;;;;;13.65;53.20;98321.64;105247;1261;72641;-42
2023/12/15 05:35:51;;;;;;;1.10;1.00;;;;;;;13.65;53.23;98329.71;105624;1256;61236;-42
2023/12/15 05:38:18;;;;;;;1.50;1.10;;;;;;;13.66;53.22;98333.27;105457;1260;61408;-40
2023/12/15 05:40:46;;;;;;;1.10;1.00;;;;;;;13.66;53.14;98336.50;105397;1257;74366;-42
2023/12/15 05:43:14;;;;;;;1.20;1.00;;;;;;;13.66;53.23;98339.44;105190;1262;66331;-41
2023/12/15 05:45:41;;;;;;;1.10;1.00;;;;;;;13.67;53.28;98345.79;105595;1258;72416;-41
2023/12/15 05:48:08;;;;;;;1.10;1.00;;;;;;;13.67;53.18;98347.19;105330;1260;61623;-41
2023/12/15 05:50:36;;;;;;;1.20;1.10;;;;;;;13.68;53.27;98352.77;106020;1261;61266;-41
2023/12/15 05:53:03;;;;;;;0.70;0.70;;;;;;;13.68;53.20;98355.70;105635;1258;74612;-41
2023/12/15 05:55:31;;;;;;;1.20;1.10;;;;;;;13.69;53.20;98364.05;106166;1261;65567;-41
2023/12/15 05:57:58;;;;;;;1.00;0.90;;;;;;;13.69;53.17;98369.85;105494;1260;72418;-41
2023/12/15 06:00:25;;;;;;;1.40;1.10;;;;;;;13.70;53.27;98374.14;105443;1261;61335;-41
2023/12/15 06:02:53;;;;;;;1.70;1.10;;;;;;;13.70;53.27;98376.13;105562;1257;61401;-42
2023/12/15 06:05:20;;;;;;;1.10;1.00;;;;;;;13.70;53.16;98381.14;105183;1257;74370;-41
2023/12/15 06:07:48;;;;;;;1.20;1.10;;;;;;;13.71;53.30;98382.94;105247;1260;66083;-40
2023/12/15 06:10:15;;;;;;;1.20;1.00;;;;;;;13.73;53.17;98387.45;105165;1259;72344;-41
2023/12/15 06:12:43;;;;;;;1.20;1.10;;;;;;;13.73;53.17;98391.17;105173;1262;61263;-41
2023/12/15 06:15:11;;;;;;;1.00;0.90;;;;;;;13.73;53.19;98396.42;105299;1265;61278;-41
2023/12/15 06:17:38;;;;;;;0.80;0.80;;;;;;;13.73;53.15;98395.73;105651;1259;75092;-40
2023/12/15 06:20:07;;;;;;;1.00;0.90;;;;;;;13.73;53.16;98400.58;105407;1262;66079;-40
2023/12/15 06:22:34;;;;;;;1.30;1.00;;;;;;;13.73;53.10;98404.12;105344;1260;71430;-40
2023/12/15 06:25:02;;;;;;;0.90;0.90;;;;;;;13.73;53.12;98407.52;105203;1260;61233;-42
2023/12/15 06:27:31;;;;;;;1.40;1.10;;;;;;;13.74;53.12;98409.39;105544;1260;61315;-40
2023/12/15 06:29:58;;;;;;;1.10;0.90;;;;;;;13.74;53.23;98418.15;105593;1256;74692;-40
2023/12/15 06:32:26;;;;;;;1.10;1.00;;;;;;;13.75;53.07;98422.02;105628;1261;66088;-40
2023/12/15 06:34:53;;;;;;;1.30;1.20;;;;;;;13.75;53.03;98432.04;105244;1260;72536;-39
2023/12/15 06:37:20;;;;;;;2.30;1.00;;;;;;;13.75;53.22;98437.52;105274;1261;61240;-39
2023/12/15 06:39:50;;;;;;;1.80;0.90;;;;;;;13.77;53.24;98440.39;105266;1259;61324;-41
2023/12/15 06:42:17;;;;;;;1.80;1.00;;;;;;;13.78;53.36;98439.58;105214;1257;74568;-42
2023/12/15 06:44:46;;;;;;;1.20;0.90;;;;;;;13.78;53.38;98442.70;105545;1261;66265;-40
2023/12/15 06:47:14;;;;;;;1.70;1.00;;;;;;;13.79;53.34;98447.84;105604;1260;72556;-41
2023/12/15 06:49:41;;;;;;;2.50;0.90;;;;;;;13.80;53.42;98454.18;105394;1264;61247;-45
2023/12/15 06:52:09;;;;;;;1.50;1.00;;;;;;;13.81;53.66;98454.81;105418;1260;61330;-47
2023/12/15 06:54:39;;;;;;;2.00;0.90;;;;;;;13.81;53.66;98456.63;105534;1267;74561;-44
2023/12/15 06:57:07;;;;;;;3.20;1.20;;;;;;;13.83;53.60;98460.03;105595;1260;65044;-41
2023/12/15 06:59:34;;;;;;;5.10;1.40;;;;;;;13.84;53.76;98462.55;105213;1260;202251;-42
2023/12/15 07:02:02;;;;;;;1.20;1.00;;;;;;;13.84;53.72;98462.27;105552;1269;61215;-40
2023/12/15 07:04:29;;;;;;;2.50;1.30;;;;;;;13.85;53.68;98466.77;105380;1263;61306;-42
2023/12/15 07:06:57;;;;;;;4.10;1.40;;;;;;;13.86;53.77;98473.71;105541;1258;74615;-40
2023/12/15 07:09:24;;;;;;;2.00;1.30;;;;;;;13.86;53.84;98474.80;105611;1260;66079;-40
2023/12/15 07:11:51;;;;;;;1.70;1.10;;;;;;;13.86;53.89;98477.90;105415;1260;72610;-40
2023/12/15 07:14:19;;;;;;;6.00;1.30;;;;;;;13.86;53.91;98483.58;105326;1269;61196;-40
2023/12/15 07:16:49;;;;;;;2.10;1.10;;;;;;;13.86;53.90;98483.67;105385;1257;61222;-39
2023/12/15 07:22:21;;;;;;;2.10;1.20;;;;;;;13.87;53.84;98496.27;105233;1264;64809;-40
2023/12/15 07:24:50;;;;;;;3.40;1.20;;;;;;;13.87;53.99;98498.73;105195;1260;72750;-40
2023/12/15 07:27:19;;;;;;;2.30;1.30;;;;;;;13.87;53.96;98498.45;105324;1261;61276;-40
2023/12/15 07:29:47;;;;;;;1.20;1.10;;;;;;;13.88;53.96;98505.56;105297;1257;61312;-39
2023/12/15 07:32:14;;;;;;;2.20;1.30;;;;;;;13.88;53.93;98511.36;105456;1262;74435;-40
2023/12/15 07:34:42;;;;;;;1.50;1.10;;;;;;;13.89;54.02;98514.63;105481;1262;65648;-40
2023/12/15 07:37:09;;;;;;;2.50;1.30;;;;;;;13.90;53.99;98520.86;105246;1260;72561;-39
2023/12/15 07:39:40;;;;;;;1.40;1.10;;;;;;;13.90;54.00;98524.08;105503;1268;61351;-39
2023/12/15 07:42:07;;;;;;;1.70;1.00;;;;;;;13.91;53.96;98533.66;105332;1262;62138;-40
2023/12/15 07:44:34;;;;;;;2.60;1.00;;;;;;;13.92;53.92;98536.94;105138;1260;74566;-40
2023/12/15 07:47:02;;;;;;;2.20;1.30;;;;;;;13.92;53.99;98538.88;105557;1269;65838;-41
2023/12/15 07:49:34;;;;;;;1.70;1.10;;;;;;;13.93;54.10;98544.14;105131;1258;72448;-38
2023/12/15 07:52:01;;;;;;;1.80;1.00;;;;;;;13.93;54.14;98546.16;105191;1261;61336;-41
2023/12/15 07:54:30;;;;;;;2.20;1.20;;;;;;;13.94;54.03;98552.30;105277;1256;61357;-40
2023/12/15 07:56:57;;;;;;;1.20;1.00;;;;;;;13.94;53.99;98555.38;104979;1265;75448;-38
2023/12/15 07:59:25;;;;;;;1.80;1.10;;;;;;;13.94;54.09;98561.00;105448;1264;65815;-39
2023/12/15 08:01:55;;;;;;;1.30;1.10;;;;;;;13.94;54.01;98564.41;105462;1258;72907;-40
2023/12/15 08:04:23;;;;;;;2.10;1.10;;;;;;;13.94;54.02;98569.15;105420;1257;61221;-41
2023/12/15 08:06:51;;;;;;;1.50;1.20;;;;;;;13.95;53.92;98574.58;105461;1258;61221;-41
2023/12/15 08:09:18;;;;;;;2.20;1.30;;;;;;;13.94;53.85;98581.54;105498;1261;75620;-41
2023/12/15 08:11:45;;;;;;;1.30;1.20;;;;;;;13.94;54.00;98581.75;105181;1260;65714;-42
2023/12/15 08:14:13;;;;;;;1.40;1.20;;;;;;;13.94;53.82;98584.07;104969;1260;72391;-41
2023/12/15 08:16:40;;;;;;;1.50;1.30;;;;;;;13.94;53.71;98590.05;105164;1261;61252;-41
2023/12/15 08:19:08;;;;;;;1.60;1.20;;;;;;;13.93;53.79;98597.11;105103;1258;61244;-41
2023/12/15 08:21:36;;;;;;;1.40;1.30;;;;;;;13.93;53.84;98601.00;105447;1261;74638;-42
2023/12/15 08:24:04;;;;;;;1.40;1.00;;;;;;;13.93;53.80;98602.55;105470;1261;65414;-44
2023/12/15 08:26:32;;;;;;;2.10;1.20;;;;;;;13.93;53.82;98605.09;105487;1261;73665;-47
2023/12/15 08:29:00;;;;;;;2.20;1.50;;;;;;;13.93;53.79;98605.69;105543;1257;61240;-48
2023/12/15 08:31:27;;;;;;;2.60;1.50;;;;;;;13.93;53.64;98606.75;105469;1256;61164;-48
2023/12/15 08:33:54;;;;;;;2.80;1.50;;;;;;;13.93;53.80;98609.14;105233;1261;74397;-49
2023/12/15 08:36:22;;;;;;;3.10;1.50;;;;;;;13.93;53.86;98612.40;108981;1257;65112;-44
2023/12/15 08:38:49;;;;;;;2.00;1.60;;;;;;;13.93;53.85;98617.32;108538;1258;71504;-46
2023/12/15 08:41:16;;;;;;;3.00;1.50;;;;;;;13.94;53.94;98619.08;105149;1260;61244;-44
2023/12/15 08:43:44;;;;;;;1.80;1.50;;;;;;;13.94;54.04;98621.66;105000;1254;61282;-45
2023/12/15 08:46:11;;;;;;;4.40;1.50;;;;;;;13.95;53.99;98627.94;105228;1257;74393;-45
2023/12/15 08:48:39;;;;;;;2.50;1.30;;;;;;;13.96;54.07;98630.04;105280;1260;64077;-44
2023/12/15 08:51:07;;;;;;;2.00;1.30;;;;;;;13.96;54.04;98631.48;105805;1257;72445;-45
2023/12/15 08:53:35;;;;;;;66.90;3.40;;;;;;;13.96;53.80;98634.40;105393;1261;61149;-45
2023/12/15 08:56:02;;;;;;;65.10;3.90;;;;;;;13.96;53.87;98634.44;105034;1261;61156;-44
2023/12/15 08:58:31;;;;;;;67.20;4.00;;;;;;;13.97;53.85;98642.40;105115;1261;74483;-44
2023/12/15 09:00:58;;;;;;;50.00;3.70;;;;;;;13.97;53.85;98645.25;106485;1259;65635;-45
2023/12/15 09:03:26;;;;;;;50.10;3.20;;;;;;;13.97;53.86;98645.56;105507;1258;72621;-44
2023/12/15 09:05:53;;;;;;;46.80;3.20;;;;;;;13.97;53.75;98650.52;105391;1261;61264;-44
2023/12/15 09:08:40;;;;;;;35.80;3.50;;;;;;;13.98;53.65;98653.32;105462;1258;61283;-47
2023/12/15 09:11:08;;;;;;;29.80;3.70;;;;;;;13.98;53.57;98657.08;105336;1263;74455;-46
2023/12/15 09:13:36;;;;;;;34.70;3.50;;;;;;;13.98;53.56;98660.48;104875;1262;66370;-46
2023/12/15 09:16:03;;;;;;;28.10;2.90;;;;;;;13.98;53.57;98663.02;105053;1256;72674;-44
2023/12/15 09:18:30;;;;;;;33.40;3.00;;;;;;;13.98;53.74;98665.10;109044;1257;60414;-44
2023/12/15 09:21:00;;;;;;;22.90;2.60;;;;;;;13.98;53.66;98670.17;109064;1260;60385;-45
2023/12/15 09:23:27;;;;;;;17.20;2.50;;;;;;;13.99;53.72;98679.77;109042;1257;74620;-45
2023/12/15 09:25:54;;;;;;;17.00;2.80;;;;;;;13.99;53.75;98679.64;107780;1257;67126;-45
2023/12/15 09:28:21;;;;;;;15.50;2.60;;;;;;;14.00;53.62;98680.86;105293;1257;72698;-43
2023/12/15 09:30:49;;;;;;;12.20;2.10;;;;;;;14.01;53.62;98676.65;105127;1261;61266;-44
2023/12/15 09:33:16;;;;;;;13.30;2.80;;;;;;;14.02;53.65;98679.25;105219;1260;61354;-44
2023/12/15 09:35:44;;;;;;;12.90;2.30;;;;;;;14.02;53.69;98681.41;105289;1257;75577;-44
2023/12/15 09:38:12;;;;;;;14.00;2.10;;;;;;;14.03;53.69;98683.23;105428;1264;65773;-45
2023/12/15 09:40:42;;;;;;;13.30;2.20;;;;;;;14.02;53.63;98687.34;105844;1257;72593;-45
2023/12/15 09:43:09;;;;;;;10.80;2.20;;;;;;;14.02;53.54;98688.10;105306;1257;61290;-44
2023/12/15 09:45:36;;;;;;;10.90;2.00;;;;;;;14.02;53.52;98691.27;105233;1257;61589;-44
2023/12/15 09:48:04;;;;;;;8.40;2.20;;;;;;;14.03;53.58;98694.92;105532;1258;74627;-45
2023/12/15 09:50:32;;;;;;;15.20;2.20;;;;;;;14.03;53.62;98703.86;105876;1261;66084;-44
2023/12/15 09:53:02;;;;;;;7.80;2.00;;;;;;;14.03;53.54;98711.51;105526;1260;72370;-46
2023/12/15 09:55:30;;;;;;;7.20;1.90;;;;;;;14.04;53.62;98715.14;105272;1260;61293;-45
2023/12/15 09:57:59;;;;;;;6.20;2.00;;;;;;;14.04;53.63;98717.95;105351;1256;61359;-46
2023/12/15 10:00:26;;;;;;;7.50;2.00;;;;;;;14.04;53.62;98722.20;105522;1258;73165;-45
2023/12/15 10:02:53;;;;;;;4.50;1.80;;;;;;;14.05;53.58;98725.59;105324;1261;66266;-45
2023/12/15 10:05:21;;;;;;;4.70;2.20;;;;;;;14.05;53.54;98726.77;105226;1260;73814;-44
2023/12/15 10:07:49;;;;;;;6.40;1.80;;;;;;;14.05;53.42;98731.90;105620;1261;61222;-44
2023/12/15 10:10:18;;;;;;;5.30;1.90;;;;;;;14.06;53.41;98735.45;105569;1257;61363;-43
2023/12/15 10:12:45;;;;;;;8.50;2.40;;;;;;;14.06;53.36;98744.23;105329;1257;74557;-43
2023/12/15 10:15:13;;;;;;;4.20;1.90;;;;;;;14.06;53.34;98748.70;105259;1263;66012;-43
2023/12/15 10:17:40;;;;;;;5.30;1.90;;;;;;;14.06;53.35;98749.61;105298;1257;73719;-43
2023/12/15 10:20:09;;;;;;;5.10;1.90;;;;;;;14.05;53.10;98751.72;105824;1256;61349;-43
2023/12/15 10:22:38;;;;;;;7.10;1.90;;;;;;;14.05;53.21;98757.95;106204;1257;61285;-43
2023/12/15 10:25:20;;;;;;;8.50;2.60;;;;;;;14.05;53.17;98759.36;105178;1257;73291;-43
2023/12/15 10:27:48;;;;;;;7.20;2.00;;;;;;;14.04;53.12;98764.23;105301;1260;65661;-44
2023/12/15 10:30:19;;;;;;;4.20;2.30;;;;;;;14.03;53.21;98768.52;105364;1258;72563;-43
2023/12/15 10:32:47;;;;;;;6.00;2.30;;;;;;;14.01;53.16;98771.11;105249;1261;61392;-44
2023/12/15 10:35:15;;;;;;;4.40;2.50;;;;;;;14.00;53.12;98780.89;105357;1257;61188;-44
2023/12/15 10:37:43;;;;;;;4.90;2.10;;;;;;;13.99;53.22;98781.66;105342;1263;75660;-43
2023/12/15 10:40:10;;;;;;;5.40;2.20;;;;;;;13.97;53.29;98787.55;105554;1260;66331;-43
2023/12/15 10:42:38;;;;;;;3.60;2.20;;;;;;;13.96;53.32;98788.55;105192;1264;72343;-43
2023/12/15 10:45:06;;;;;;;2.60;2.10;;;;;;;13.95;53.41;98794.55;105227;1260;61236;-43
2023/12/15 10:47:34;;;;;;;2.90;2.20;;;;;;;13.93;53.53;98789.93;105317;1257;61393;-44
2023/12/15 10:50:02;;;;;;;8.50;2.20;;;;;;;13.93;53.44;98795.59;105268;1258;75685;-44
2023/12/15 10:52:35;;;;;;;3.80;2.00;;;;;;;13.92;53.44;98795.02;105279;1260;65265;-43
2023/12/15 10:55:04;;;;;;;3.90;2.30;;;;;;;13.92;53.48;98799.33;105337;1260;72189;-45
2023/12/15 10:57:31;;;;;;;4.70;2.20;;;;;;;13.92;53.41;98808.00;105607;1256;61363;-42
2023/12/15 11:00:00;;;;;;;5.00;2.40;;;;;;;13.92;53.51;98812.16;105513;1257;61213;-43
2023/12/15 11:02:31;;;;;;;5.70;2.20;;;;;;;13.92;53.38;98818.63;105254;1255;74324;-45
2023/12/15 11:04:59;;;;;;;3.20;2.10;;;;;;;13.92;53.48;98816.72;105225;1261;66676;-43
2023/12/15 11:07:29;;;;;;;7.10;2.30;;;;;;;13.92;53.34;98817.80;105187;1257;72378;-42
2023/12/15 11:09:59;;;;;;;3.60;2.20;;;;;;;13.93;53.31;98826.98;105395;1261;61260;-42
2023/12/15 11:12:36;;;;;;;5.40;2.20;;;;;;;13.93;53.33;98829.31;105532;1256;61324;-44
2023/12/15 11:15:08;;;;;;;2.40;2.20;;;;;;;13.94;53.33;98831.52;105283;1258;74527;-45
2023/12/15 11:17:55;;;;;;;3.50;2.00;;;;;;;13.95;53.31;98839.10;105303;1260;65036;-44
2023/12/15 11:20:24;;;;;;;4.20;2.10;;;;;;;13.94;53.26;98839.70;105129;1262;72146;-45
2023/12/15 11:22:59;;;;;;;2.50;2.00;;;;;;;13.94;53.28;98840.61;105326;1261;61304;-43
2023/12/15 11:25:30;;;;;;;3.60;2.00;;;;;;;13.94;53.16;98849.23;105299;1258;61367;-43
2023/12/15 11:28:08;;;;;;;4.30;2.30;;;;;;;13.94;53.15;98854.77;107203;1259;73788;-44
2023/12/15 11:30:46;;;;;;;4.10;2.00;;;;;;;13.94;53.12;98859.15;107278;1255;67408;-44